Time;durP1;ratioP1;P1;durP2;ratioP2;P2;SDS_P1;SDS_P2;PMS_P1;PMS_P2;Temp;Humidity;BMP_temperature;BMP_pressure;BME280_temperature;BME280_humidity;BME280_pressure;Samples;Min_cycle;Max_cycle;Signal;HPM_P1;HPM_P2
2023/10/24 00:00:32;;;;;;;15.77;9.38;;;;;;;9.93;100.00;100621.47;4932109;29;20497;-76
2023/10/24 00:02:59;;;;;;;9.73;8.50;;;;;;;9.89;100.00;100604.78;4917679;29;20055;-75
2023/10/24 00:05:28;;;;;;;11.65;9.32;;;;;;;9.86;100.00;100596.00;4889409;29;20054;-75
2023/10/24 00:07:56;;;;;;;14.57;8.93;;;;;;;9.83;100.00;100588.09;4913853;29;20055;-75
2023/10/24 00:10:26;;;;;;;14.40;8.75;;;;;;;9.80;100.00;100578.44;4931540;29;20429;-75
2023/10/24 00:12:53;;;;;;;15.18;10.23;;;;;;;9.80;100.00;100578.44;4905271;28;20536;-75
2023/10/24 00:15:21;;;;;;;11.07;9.35;;;;;;;9.80;100.00;100561.78;4949262;29;20040;-75
2023/10/24 00:17:48;;;;;;;11.18;9.40;;;;;;;9.77;100.00;100554.75;4931259;29;20047;-76
2023/10/24 00:20:16;;;;;;;14.30;8.60;;;;;;;9.77;100.00;100549.47;4916953;29;20059;-76
2023/10/24 00:22:43;;;;;;;13.10;10.25;;;;;;;9.76;100.00;100534.59;4891501;29;20050;-76
2023/10/24 00:25:13;;;;;;;14.48;10.82;;;;;;;9.77;100.00;100528.44;4917664;29;20051;-76
2023/10/24 00:27:41;;;;;;;11.40;9.02;;;;;;;9.78;100.00;100531.97;4913361;29;20058;-76
2023/10/24 00:30:10;;;;;;;12.98;10.30;;;;;;;9.76;100.00;100534.59;4921948;29;20047;-76
2023/10/24 00:32:38;;;;;;;13.90;10.10;;;;;;;9.74;100.00;100528.44;4912961;29;20441;-75
2023/10/24 00:35:05;;;;;;;12.77;9.82;;;;;;;9.72;100.00;100522.31;4917089;29;20491;-75
2023/10/24 00:37:33;;;;;;;12.27;9.38;;;;;;;9.72;100.00;100517.91;4887239;29;20146;-74
2023/10/24 00:40:02;;;;;;;12.20;8.98;;;;;;;9.71;100.00;100513.50;4915931;29;20047;-75
2023/10/24 00:42:29;;;;;;;15.07;9.57;;;;;;;9.72;100.00;100509.16;4929796;29;20055;-76
2023/10/24 00:44:56;;;;;;;14.68;10.05;;;;;;;9.73;100.00;100510.88;4920799;29;20051;-76
2023/10/24 00:47:24;;;;;;;13.43;9.35;;;;;;;9.71;100.00;100512.63;4916086;29;20051;-76
2023/10/24 00:49:52;;;;;;;17.70;9.73;;;;;;;9.70;100.00;100514.41;4930532;29;20047;-76
2023/10/24 00:52:20;;;;;;;13.13;9.50;;;;;;;9.71;100.00;100515.25;4861163;29;20406;-76
2023/10/24 00:54:47;;;;;;;12.15;9.00;;;;;;;9.70;100.00;100517.03;4914783;29;20039;-76
2023/10/24 00:57:15;;;;;;;12.02;8.68;;;;;;;9.72;100.00;100515.28;4917186;29;20129;-76
2023/10/24 00:59:43;;;;;;;15.45;9.68;;;;;;;9.74;100.00;100510.03;4928237;28;20051;-76
2023/10/24 01:02:11;;;;;;;12.27;8.57;;;;;;;9.74;100.00;100512.66;4923144;29;20447;-76
2023/10/24 01:04:39;;;;;;;12.93;9.90;;;;;;;9.76;100.00;100511.78;4946573;28;20043;-75
2023/10/24 01:07:07;;;;;;;14.85;9.85;;;;;;;9.77;100.00;100504.75;4916681;29;20051;-75
2023/10/24 01:09:34;;;;;;;14.80;9.52;;;;;;;9.79;100.00;100502.13;4860043;29;20052;-75
2023/10/24 01:12:04;;;;;;;13.23;9.68;;;;;;;9.80;100.00;100490.72;4913618;29;20074;-76
2023/10/24 01:14:32;;;;;;;11.27;9.77;;;;;;;9.80;100.00;100477.56;4938520;29;20524;-76
2023/10/24 01:16:59;;;;;;;18.92;10.25;;;;;;;9.79;100.00;100475.81;4902861;29;20055;-75
2023/10/24 01:19:27;;;;;;;12.07;9.32;;;;;;;9.78;100.00;100474.94;4931993;29;20062;-75
2023/10/24 01:21:55;;;;;;;13.70;9.20;;;;;;;9.76;100.00;100468.78;4909633;29;20055;-75
2023/10/24 01:24:26;;;;;;;12.73;9.75;;;;;;;9.76;100.00;100477.56;4890041;29;20512;-75
2023/10/24 01:26:56;;;;;;;19.08;11.90;;;;;;;9.73;100.00;100466.16;4913394;29;20527;-75
2023/10/24 01:29:24;;;;;;;15.40;10.95;;;;;;;9.72;100.00;100464.41;4924228;29;20422;-77
2023/10/24 01:31:51;;;;;;;16.85;12.13;;;;;;;9.73;100.00;100463.53;4910229;29;20051;-75
2023/10/24 01:34:18;;;;;;;20.25;11.13;;;;;;;9.72;100.00;100464.41;4929484;29;20063;-76
2023/10/24 01:36:46;;;;;;;13.63;10.07;;;;;;;9.70;100.00;100453.88;4948013;29;20386;-74
2023/10/24 01:39:14;;;;;;;18.45;10.77;;;;;;;9.70;100.00;100455.66;4873786;29;20047;-75
2023/10/24 01:41:42;;;;;;;14.57;10.70;;;;;;;9.69;100.00;100453.88;4918883;29;20059;-75
2023/10/24 01:44:09;;;;;;;15.70;10.80;;;;;;;9.68;100.00;100442.47;4894799;29;20818;-75
2023/10/24 01:46:36;;;;;;;14.98;11.48;;;;;;;9.68;100.00;100445.13;4905739;29;20050;-75
2023/10/24 01:49:04;;;;;;;13.20;11.18;;;;;;;9.69;100.00;100438.97;4928079;29;20047;-77
2023/10/24 01:51:31;;;;;;;23.15;12.68;;;;;;;9.69;100.00;100420.53;4915272;29;20085;-76
2023/10/24 01:53:58;;;;;;;15.43;12.00;;;;;;;9.69;100.00;100423.19;4874528;28;20043;-75
2023/10/24 01:56:26;;;;;;;17.33;12.68;;;;;;;9.69;100.00;100417.91;4931048;29;20051;-75
2023/10/24 01:58:53;;;;;;;18.42;12.55;;;;;;;9.69;100.00;100420.53;4911072;29;20063;-75
2023/10/24 02:01:20;;;;;;;16.25;12.23;;;;;;;9.70;100.00;100418.81;4885711;28;20705;-75
2023/10/24 02:03:48;;;;;;;18.90;12.93;;;;;;;9.70;100.00;100418.81;4946068;29;20046;-75
2023/10/24 02:06:15;;;;;;;21.63;13.15;;;;;;;9.70;100.00;100417.06;4903842;29;20054;-75
2023/10/24 02:08:43;;;;;;;26.30;13.95;;;;;;;9.70;100.00;100417.06;4930584;29;20509;-75
2023/10/24 02:11:10;;;;;;;25.45;13.30;;;;;;;9.71;100.00;100405.63;4888955;29;20725;-75
2023/10/24 02:13:37;;;;;;;22.05;13.18;;;;;;;9.70;100.00;100396.00;4916333;29;20062;-75
2023/10/24 02:16:04;;;;;;;21.83;13.57;;;;;;;9.70;100.00;100390.75;4913310;29;20047;-75
2023/10/24 02:18:32;;;;;;;21.73;13.30;;;;;;;9.70;100.00;100382.84;4892449;29;20055;-75
2023/10/24 02:20:59;;;;;;;25.02;15.88;;;;;;;9.71;100.00;100391.59;4916252;29;20055;-75
2023/10/24 02:23:27;;;;;;;18.23;14.07;;;;;;;9.71;100.00;100379.31;4930249;29;20055;-74
2023/10/24 02:25:54;;;;;;;28.88;16.80;;;;;;;9.73;100.00;100382.84;4898126;28;20035;-74
2023/10/24 02:28:21;;;;;;;23.40;15.30;;;;;;;9.74;100.00;100378.47;4925087;29;20043;-76
2023/10/24 02:30:49;;;;;;;27.90;16.73;;;;;;;9.74;100.00;100381.09;4934682;29;20055;-75
2023/10/24 02:33:16;;;;;;;20.85;14.98;;;;;;;9.75;100.00;100369.66;4922924;28;20054;-76
2023/10/24 02:35:43;;;;;;;34.17;16.20;;;;;;;9.73;100.00;100367.06;4918179;29;20051;-76
2023/10/24 02:38:11;;;;;;;24.73;16.27;;;;;;;9.75;100.00;100367.94;4932155;29;20043;-76
2023/10/24 02:40:38;;;;;;;29.60;17.40;;;;;;;9.76;100.00;100360.91;4934250;29;20047;-76
2023/10/24 02:43:05;;;;;;;31.25;17.80;;;;;;;9.76;100.00;100355.66;4887299;29;20055;-77
2023/10/24 02:45:33;;;;;;;29.45;18.80;;;;;;;9.78;100.00;100360.91;4939868;29;20047;-75
2023/10/24 02:48:01;;;;;;;27.50;16.35;;;;;;;9.79;100.00;100349.50;4914965;29;20413;-75
2023/10/24 02:50:29;;;;;;;29.90;16.35;;;;;;;9.79;100.00;100355.63;4923808;29;20055;-76
2023/10/24 02:52:59;;;;;;;28.38;17.02;;;;;;;9.81;100.00;100355.63;4916534;29;20074;-75
2023/10/24 02:55:27;;;;;;;27.63;17.85;;;;;;;9.81;100.00;100353.00;4931567;29;20048;-76
2023/10/24 02:57:54;;;;;;;28.30;17.60;;;;;;;9.83;100.00;100344.25;4875285;29;20031;-75
2023/10/24 03:00:22;;;;;;;29.83;17.60;;;;;;;9.82;100.00;100342.47;4909803;29;20054;-75
2023/10/24 03:02:49;;;;;;;24.65;16.58;;;;;;;9.83;100.00;100343.34;4916997;29;20509;-75
2023/10/24 03:05:17;;;;;;;30.88;19.45;;;;;;;9.84;100.00;100342.47;4906611;28;20573;-75
2023/10/24 03:07:44;;;;;;;27.58;17.33;;;;;;;9.84;100.00;100327.56;4917875;29;20051;-75
2023/10/24 03:10:12;;;;;;;26.45;17.02;;;;;;;9.86;100.00;100330.19;4916164;29;20795;-75
2023/10/24 03:12:39;;;;;;;26.38;16.92;;;;;;;9.88;100.00;100331.06;4950689;29;20051;-75
2023/10/24 03:15:07;;;;;;;25.05;17.40;;;;;;;9.88;100.00;100328.44;4913802;28;20051;-75
2023/10/24 03:17:35;;;;;;;26.73;17.45;;;;;;;9.89;100.00;100314.41;4939562;28;20421;-75
2023/10/24 03:20:05;;;;;;;27.95;17.58;;;;;;;9.90;100.00;100298.59;4915416;29;20047;-75
2023/10/24 03:22:32;;;;;;;22.42;15.43;;;;;;;9.91;100.00;100294.22;4917180;29;20058;-75
2023/10/24 03:24:59;;;;;;;21.95;15.98;;;;;;;9.92;100.00;100303.84;4946530;29;20058;-75
2023/10/24 03:27:27;;;;;;;25.35;15.70;;;;;;;9.93;100.00;100300.34;4929752;29;20051;-75
2023/10/24 03:29:54;;;;;;;26.25;14.90;;;;;;;9.92;100.00;100286.31;4887555;29;20078;-75
2023/10/24 03:32:22;;;;;;;18.23;13.57;;;;;;;9.92;100.00;100281.06;4915028;29;20047;-74
2023/10/24 03:34:49;;;;;;;24.90;15.25;;;;;;;9.93;100.00;100280.16;4898720;29;20421;-75
2023/10/24 03:37:19;;;;;;;23.60;15.88;;;;;;;9.94;100.00;100284.56;4922486;29;20409;-76
2023/10/24 03:39:47;;;;;;;21.30;15.33;;;;;;;9.93;100.00;100284.56;4930287;29;20044;-76
2023/10/24 03:42:14;;;;;;;21.58;14.98;;;;;;;9.93;100.00;100281.94;4917018;29;20055;-75
2023/10/24 03:44:42;;;;;;;22.40;15.15;;;;;;;9.93;100.00;100279.28;4905004;28;20059;-76
2023/10/24 03:47:10;;;;;;;25.27;16.15;;;;;;;9.94;100.00;100281.03;4931565;29;20047;-75
2023/10/24 03:49:37;;;;;;;21.40;16.17;;;;;;;9.94;100.00;100281.94;4910478;29;20048;-76
2023/10/24 03:52:05;;;;;;;25.55;16.58;;;;;;;9.94;100.00;100279.28;4937971;28;20039;-76
2023/10/24 03:54:33;;;;;;;20.23;14.48;;;;;;;9.95;100.00;100273.13;4916821;29;20046;-76
2023/10/24 03:57:00;;;;;;;27.10;17.55;;;;;;;9.98;100.00;100276.63;4916446;29;20035;-75
2023/10/24 03:59:28;;;;;;;25.63;17.63;;;;;;;9.98;100.00;100274.91;4900477;28;20066;-75
2023/10/24 04:01:56;;;;;;;24.40;16.52;;;;;;;9.98;100.00;100272.28;4872480;28;20062;-76
2023/10/24 04:04:23;;;;;;;25.00;17.73;;;;;;;9.99;100.00;100281.03;4928022;29;20059;-76
2023/10/24 04:06:51;;;;;;;26.70;17.67;;;;;;;9.99;100.00;100274.00;4938037;28;20058;-76
2023/10/24 04:09:18;;;;;;;22.80;16.52;;;;;;;10.00;100.00;100283.66;4901522;29;20429;-75
2023/10/24 04:12:05;;;;;;;24.27;17.02;;;;;;;10.01;100.00;100271.38;4915817;29;20070;-75
2023/10/24 04:14:32;;;;;;;24.13;17.65;;;;;;;10.01;100.00;100272.25;4894752;29;20051;-75
2023/10/24 04:17:00;;;;;;;32.70;18.77;;;;;;;10.02;100.00;100262.56;4885171;29;20413;-76
2023/10/24 04:19:27;;;;;;;22.20;16.30;;;;;;;9.99;100.00;100263.47;4897285;29;20063;-76
2023/10/24 04:21:54;;;;;;;22.60;16.42;;;;;;;9.99;100.00;100255.56;4891019;28;20467;-75
2023/10/24 04:24:22;;;;;;;19.27;14.73;;;;;;;10.01;100.00;100255.56;4905220;29;20047;-76
2023/10/24 04:26:49;;;;;;;18.85;15.13;;;;;;;10.01;100.00;100253.81;4936181;28;20051;-75
2023/10/24 04:29:17;;;;;;;19.48;15.93;;;;;;;10.02;100.00;100247.69;4918959;29;20059;-77
2023/10/24 04:31:44;;;;;;;20.70;15.52;;;;;;;10.04;100.00;100255.56;4869434;29;20059;-75
2023/10/24 04:34:11;;;;;;;24.08;17.70;;;;;;;10.03;100.00;100249.41;4898615;29;20043;-76
2023/10/24 04:36:39;;;;;;;22.77;16.95;;;;;;;10.03;100.00;100244.16;4914920;28;20558;-76
2023/10/24 04:39:06;;;;;;;28.35;18.67;;;;;;;10.04;100.00;100253.81;4891850;29;20058;-76
2023/10/24 04:41:34;;;;;;;23.60;16.95;;;;;;;10.04;100.00;100245.91;4914954;28;21063;-74
2023/10/24 04:44:01;;;;;;;21.58;16.98;;;;;;;10.06;100.00;100243.28;4930297;29;20054;-76
2023/10/24 04:46:29;;;;;;;30.17;18.40;;;;;;;10.06;100.00;100238.03;4871350;28;20055;-75
2023/10/24 04:48:56;;;;;;;26.30;18.52;;;;;;;10.07;100.00;100235.34;4915214;29;20508;-75
2023/10/24 04:51:24;;;;;;;23.27;16.95;;;;;;;10.08;100.00;100242.38;4944542;29;20031;-75
2023/10/24 04:53:51;;;;;;;27.42;18.33;;;;;;;10.09;100.00;100236.25;4920206;29;20050;-75
2023/10/24 04:56:18;;;;;;;25.25;17.92;;;;;;;10.10;100.00;100232.72;4902814;28;20055;-75
2023/10/24 04:58:46;;;;;;;30.00;19.80;;;;;;;10.12;100.00;100233.59;4910172;29;20059;-75
2023/10/24 05:01:13;;;;;;;23.23;18.17;;;;;;;10.13;100.00;100234.44;4892939;28;20051;-74
2023/10/24 05:03:41;;;;;;;30.05;20.48;;;;;;;10.14;100.00;100226.53;4911715;29;20047;-76
2023/10/24 05:06:08;;;;;;;24.48;18.95;;;;;;;10.17;100.00;100214.25;4927620;29;20062;-74
2023/10/24 05:08:35;;;;;;;26.05;18.75;;;;;;;10.17;100.00;100222.16;4896199;29;20046;-75
2023/10/24 05:11:03;;;;;;;28.80;18.33;;;;;;;10.19;100.00;100221.28;4888018;29;20050;-75
2023/10/24 05:13:31;;;;;;;25.02;18.20;;;;;;;10.18;100.00;100216.88;4898613;29;20064;-75
2023/10/24 05:15:59;;;;;;;30.98;20.15;;;;;;;10.20;100.00;100215.09;4899895;29;20051;-76
2023/10/24 05:18:26;;;;;;;28.92;19.13;;;;;;;10.22;100.00;100212.47;4854624;29;20059;-76
2023/10/24 05:20:53;;;;;;;29.80;21.10;;;;;;;10.23;100.00;100216.88;4879846;29;20043;-75
2023/10/24 05:23:21;;;;;;;28.50;20.10;;;;;;;10.23;100.00;100223.00;4893923;29;20445;-76
2023/10/24 05:25:50;;;;;;;28.40;19.85;;;;;;;10.24;100.00;100218.59;4881037;29;20425;-76
2023/10/24 05:28:17;;;;;;;28.10;19.08;;;;;;;10.26;100.00;100214.19;4908485;29;20051;-75
2023/10/24 05:30:45;;;;;;;29.73;18.92;;;;;;;10.26;100.00;100211.56;4895746;29;20070;-75
2023/10/24 05:33:12;;;;;;;24.50;18.08;;;;;;;10.27;100.00;100210.69;4848040;29;20043;-75
2023/10/24 05:35:48;;;;;;;26.92;18.45;;;;;;;10.27;100.00;100206.28;4927690;29;20052;-75
2023/10/24 05:38:16;;;;;;;24.98;18.13;;;;;;;10.28;100.00;100201.91;4908939;29;20047;-76
2023/10/24 05:40:45;;;;;;;24.75;18.45;;;;;;;10.30;100.00;100200.13;4868148;29;20059;-75
2023/10/24 05:43:13;;;;;;;25.65;15.07;;;;;;;10.29;100.00;100194.00;4909220;29;20517;-75
2023/10/24 05:45:40;;;;;;;20.25;14.95;;;;;;;10.31;100.00;100194.03;4910981;29;20051;-75
2023/10/24 05:48:07;;;;;;;24.75;16.42;;;;;;;10.31;100.00;100187.00;4863051;29;20047;-76
2023/10/24 05:50:36;;;;;;;25.73;15.23;;;;;;;10.33;100.00;100179.94;4909673;29;20060;-75
2023/10/24 05:53:03;;;;;;;19.13;14.30;;;;;;;10.33;100.00;100168.56;4906872;29;20450;-75
2023/10/24 05:55:33;;;;;;;23.98;15.07;;;;;;;10.34;100.00;100165.03;4926508;29;20054;-75
2023/10/24 05:58:01;;;;;;;20.23;14.98;;;;;;;10.35;100.00;100166.78;4896737;29;20048;-76
2023/10/24 06:00:28;;;;;;;24.33;15.80;;;;;;;10.35;100.00;100161.50;4927411;29;20489;-77
2023/10/24 06:02:56;;;;;;;22.23;16.20;;;;;;;10.36;100.00;100163.28;4864997;29;20059;-76
2023/10/24 06:05:23;;;;;;;22.65;15.85;;;;;;;10.35;100.00;100166.78;4896099;29;20048;-75
2023/10/24 06:07:51;;;;;;;24.20;16.27;;;;;;;10.36;100.00;100163.28;4893419;29;20458;-75
2023/10/24 06:10:18;;;;;;;18.73;14.05;;;;;;;10.37;100.00;100167.63;4894666;29;20055;-75
2023/10/24 06:12:46;;;;;;;20.70;14.70;;;;;;;10.36;100.00;100173.81;4838254;29;20059;-75
2023/10/24 06:15:13;;;;;;;21.17;14.32;;;;;;;10.36;100.00;100163.28;4891979;29;20044;-75
2023/10/24 06:17:41;;;;;;;22.38;15.30;;;;;;;10.36;100.00;100159.75;4889505;28;20044;-75
2023/10/24 06:20:10;;;;;;;25.20;15.55;;;;;;;10.37;100.00;100154.47;4910853;29;20048;-76
2023/10/24 06:22:37;;;;;;;25.40;14.75;;;;;;;10.37;100.00;100151.84;4918015;29;20071;-75
2023/10/24 06:25:05;;;;;;;19.60;12.90;;;;;;;10.36;100.00;100152.75;4944816;28;20051;-75
2023/10/24 06:27:32;;;;;;;17.75;11.63;;;;;;;10.38;100.00;100155.34;4904833;28;20067;-77
2023/10/24 06:30:00;;;;;;;15.70;12.13;;;;;;;10.37;100.00;100167.63;4909042;29;20039;-77
2023/10/24 06:32:27;;;;;;;22.45;12.48;;;;;;;10.37;100.00;100180.81;4916253;28;20044;-77
2023/10/24 06:34:55;;;;;;;16.45;11.77;;;;;;;10.39;100.00;100172.91;4899272;28;20054;-76
2023/10/24 06:37:23;;;;;;;18.85;12.38;;;;;;;10.40;100.00;100174.66;4927262;29;20039;-76
2023/10/24 06:39:50;;;;;;;16.83;12.38;;;;;;;10.40;100.00;100174.66;4915153;29;20059;-76
2023/10/24 06:42:18;;;;;;;16.25;12.52;;;;;;;10.40;100.00;100172.91;4936868;29;20051;-76
2023/10/24 06:44:45;;;;;;;19.50;11.85;;;;;;;10.42;100.00;100180.78;4904443;28;20049;-76
2023/10/24 06:47:13;;;;;;;18.70;12.70;;;;;;;10.43;100.00;100179.91;4952907;28;20077;-76
2023/10/24 06:49:40;;;;;;;15.63;10.80;;;;;;;10.44;100.00;100179.88;4862161;29;20050;-77
2023/10/24 06:52:09;;;;;;;20.15;11.25;;;;;;;10.44;100.00;100179.88;4945864;29;20066;-76
2023/10/24 06:54:36;;;;;;;15.75;12.07;;;;;;;10.45;100.00;100180.75;4908698;29;20051;-76
2023/10/24 06:57:04;;;;;;;17.23;11.68;;;;;;;10.47;100.00;100181.63;4910899;28;20048;-76
2023/10/24 06:59:31;;;;;;;16.95;11.60;;;;;;;10.47;100.00;100182.50;4923279;28;20051;-76
2023/10/24 07:01:59;;;;;;;15.02;11.70;;;;;;;10.49;100.00;100185.13;4931054;29;20051;-75
2023/10/24 07:04:26;;;;;;;19.95;11.55;;;;;;;10.49;100.00;100178.09;4871707;29;20962;-76
2023/10/24 07:06:54;;;;;;;16.23;11.40;;;;;;;10.50;100.00;100182.47;4925373;29;20577;-76
2023/10/24 07:09:22;;;;;;;14.38;11.05;;;;;;;10.51;100.00;100181.59;4914923;29;20066;-76
2023/10/24 07:11:49;;;;;;;19.88;11.30;;;;;;;10.52;100.00;100171.94;4932677;29;20058;-77
2023/10/24 07:14:16;;;;;;;18.27;11.27;;;;;;;10.53;100.00;100184.22;4915942;29;20058;-77
2023/10/24 07:16:43;;;;;;;13.57;10.55;;;;;;;10.53;100.00;100181.59;4890338;29;20055;-77
2023/10/24 07:19:13;;;;;;;16.23;11.20;;;;;;;10.53;100.00;100185.09;4882245;28;20047;-76
2023/10/24 07:21:41;;;;;;;16.52;10.20;;;;;;;10.54;100.00;100188.59;4926162;29;20047;-76
2023/10/24 07:24:08;;;;;;;22.70;12.25;;;;;;;10.55;100.00;100185.09;4926141;28;20055;-76
2023/10/24 07:26:36;;;;;;;16.50;11.63;;;;;;;10.56;100.00;100184.19;4928017;29;20051;-76
2023/10/24 07:29:03;;;;;;;18.00;11.25;;;;;;;10.58;100.00;100186.81;4916798;29;20043;-76
2023/10/24 07:31:31;;;;;;;23.13;11.93;;;;;;;10.59;100.00;100185.94;4903610;29;20059;-77
2023/10/24 07:33:59;;;;;;;13.35;10.35;;;;;;;10.61;100.00;100178.91;4929290;28;20063;-76
2023/10/24 07:36:30;;;;;;;12.95;10.07;;;;;;;10.61;100.00;100176.25;4897767;29;20067;-75
2023/10/24 07:39:00;;;;;;;12.57;9.55;;;;;;;10.63;100.00;100174.50;4900882;29;20051;-76
2023/10/24 07:41:27;;;;;;;10.98;9.35;;;;;;;10.63;100.00;100182.41;4937524;28;21207;-76
2023/10/24 07:43:55;;;;;;;12.60;9.30;;;;;;;10.64;100.00;100184.13;4917417;29;20051;-77
2023/10/24 07:46:23;;;;;;;12.40;8.80;;;;;;;10.64;100.00;100184.13;4917685;28;20051;-76
2023/10/24 07:48:52;;;;;;;10.88;8.13;;;;;;;10.65;100.00;100183.25;4901313;29;20058;-76
2023/10/24 07:51:20;;;;;;;12.65;9.23;;;;;;;10.64;100.00;100171.84;4887851;29;20051;-76
2023/10/24 07:53:47;;;;;;;13.05;8.93;;;;;;;10.67;100.00;100179.72;4931398;29;20062;-76
2023/10/24 07:56:15;;;;;;;10.35;8.50;;;;;;;10.69;100.00;100179.72;4916006;29;20047;-76
2023/10/24 07:58:42;;;;;;;11.23;8.38;;;;;;;10.71;100.00;100173.53;4924507;29;20090;-76
2023/10/24 08:01:10;;;;;;;12.52;9.18;;;;;;;10.72;100.00;100161.25;4931867;29;20055;-76
2023/10/24 08:03:37;;;;;;;11.52;8.60;;;;;;;10.74;100.00;100175.28;4905362;29;20059;-76
2023/10/24 08:06:05;;;;;;;11.57;9.02;;;;;;;10.76;100.00;100167.38;4892647;29;20519;-76
2023/10/24 08:08:32;;;;;;;10.27;7.63;;;;;;;10.80;100.00;100166.44;4931196;29;20055;-76
2023/10/24 08:11:00;;;;;;;12.18;8.23;;;;;;;10.81;100.00;100171.72;4915015;29;20059;-76
2023/10/24 08:13:27;;;;;;;11.88;8.40;;;;;;;10.86;100.00;100177.78;4930704;29;20059;-76
2023/10/24 08:15:58;;;;;;;14.70;8.52;;;;;;;10.87;100.00;100176.94;4933510;29;20117;-77
2023/10/24 08:18:25;;;;;;;;;;;;;;;10.87;100.00;100163.75;4918286;28;20058;-77
2023/10/24 08:20:55;;;;;;;14.07;7.72;;;;;;;10.88;100.00;100167.25;4949502;29;19922;-76
2023/10/24 08:23:23;;;;;;;9.75;8.15;;;;;;;10.89;100.00;100164.59;4889214;28;20050;-76
2023/10/24 08:25:50;;;;;;;10.55;7.95;;;;;;;10.91;100.00;100167.22;4902446;29;20055;-77
2023/10/24 08:28:17;;;;;;;10.38;8.48;;;;;;;10.91;100.00;100168.09;4944826;29;20579;-76
2023/10/24 08:30:45;;;;;;;9.25;7.40;;;;;;;10.90;100.00;100171.59;4915685;28;20059;-77
2023/10/24 08:33:13;;;;;;;7.95;7.13;;;;;;;10.90;100.00;100162.84;4906208;28;20051;-77
2023/10/24 08:35:40;;;;;;;9.93;7.40;;;;;;;10.91;100.00;100164.59;4930244;29;20054;-76
2023/10/24 08:38:08;;;;;;;8.20;6.97;;;;;;;10.91;100.00;100162.81;4853173;29;20052;-77
2023/10/24 08:40:35;;;;;;;8.88;7.97;;;;;;;10.93;100.00;100161.03;4915098;29;20059;-76
2023/10/24 08:43:03;;;;;;;8.55;7.45;;;;;;;10.94;100.00;100156.63;4947692;29;20051;-76
2023/10/24 08:45:30;;;;;;;11.18;7.45;;;;;;;10.95;100.00;100163.66;4944730;29;20043;-77
2023/10/24 08:48:00;;;;;;;9.63;8.07;;;;;;;10.95;100.00;100155.75;4931071;29;20062;-77
2023/10/24 08:50:28;;;;;;;8.15;7.35;;;;;;;10.96;100.00;100161.91;4918115;29;20066;-77
2023/10/24 08:52:55;;;;;;;9.32;7.88;;;;;;;10.97;100.00;100158.38;4871320;29;20421;-76
2023/10/24 08:55:24;;;;;;;10.65;7.32;;;;;;;10.97;100.00;100166.31;4897712;29;20055;-78
2023/10/24 08:57:54;;;;;;;9.60;6.47;;;;;;;10.98;100.00;100162.75;4915581;29;20059;-76
2023/10/24 09:00:22;;;;;;;10.75;7.50;;;;;;;10.99;100.00;100164.53;4929286;29;20109;-76
2023/10/24 09:02:49;;;;;;;9.48;7.28;;;;;;;10.99;100.00;100169.78;4913847;29;20433;-76
2023/10/24 09:05:18;;;;;;;12.02;7.00;;;;;;;10.98;100.00;100163.63;4885694;28;20050;-77
2023/10/24 09:07:46;;;;;;;7.55;6.72;;;;;;;10.99;100.00;100160.13;4915431;29;20059;-76
2023/10/24 09:10:13;;;;;;;9.80;6.70;;;;;;;10.98;100.00;100165.41;4866938;29;20066;-76
2023/10/24 09:12:42;;;;;;;11.65;7.13;;;;;;;10.97;100.00;100153.97;4931345;29;20059;-76
2023/10/24 09:15:10;;;;;;;9.52;6.80;;;;;;;10.97;100.00;100167.16;4930094;29;20063;-76
2023/10/24 09:17:37;;;;;;;8.57;7.65;;;;;;;10.97;100.00;100161.03;4930568;29;20579;-77
2023/10/24 09:20:09;;;;;;;11.25;7.60;;;;;;;10.97;100.00;100163.66;4913958;29;20445;-77
2023/10/24 09:22:41;;;;;;;12.23;7.18;;;;;;;10.96;100.00;100165.41;4900329;29;20086;-76
2023/10/24 09:25:09;;;;;;;9.75;6.63;;;;;;;10.96;100.00;100170.69;4903908;28;20059;-75
2023/10/24 09:27:36;;;;;;;7.95;5.72;;;;;;;10.96;100.00;100173.31;4930433;29;20047;-76
2023/10/24 09:30:11;;;;;;;9.23;6.35;;;;;;;10.96;100.00;100167.19;4931588;29;20055;-76
2023/10/24 09:32:41;;;;;;;9.20;6.47;;;;;;;10.95;100.00;100170.72;4909303;29;20062;-76
2023/10/24 09:35:09;;;;;;;7.80;6.20;;;;;;;10.95;100.00;100176.00;4930666;28;20115;-75
2023/10/24 09:37:44;;;;;;;8.63;6.07;;;;;;;10.95;100.00;100171.59;4936303;28;20070;-76
2023/10/24 09:40:12;;;;;;;9.07;7.22;;;;;;;10.95;100.00;100168.94;4902934;28;20035;-76
2023/10/24 09:42:41;;;;;;;9.43;6.65;;;;;;;10.96;100.00;100167.19;4898263;29;20062;-75
2023/10/24 09:45:11;;;;;;;10.07;7.10;;;;;;;10.97;100.00;100176.84;4919754;29;20780;-76
2023/10/24 09:47:40;;;;;;;9.10;6.13;;;;;;;10.98;100.00;100179.44;4913707;29;20066;-76
2023/10/24 09:50:11;;;;;;;11.63;6.70;;;;;;;10.99;100.00;100173.28;4946679;29;20046;-77
2023/10/24 09:52:41;;;;;;;11.02;6.97;;;;;;;11.00;100.00;100161.88;4901697;28;20039;-77
2023/10/24 09:55:12;;;;;;;9.88;6.90;;;;;;;11.00;100.00;100171.53;4905020;28;20039;-76
2023/10/24 09:57:40;;;;;;;9.75;7.80;;;;;;;11.00;100.00;100171.53;4948343;29;20523;-76
2023/10/24 10:00:11;;;;;;;10.80;7.00;;;;;;;11.01;100.00;100170.66;4899454;29;20035;-76
2023/10/24 10:02:44;;;;;;;13.18;8.50;;;;;;;11.01;100.00;100175.94;4910383;28;20039;-76
2023/10/24 10:05:14;;;;;;;9.75;6.82;;;;;;;11.00;100.00;100164.50;4901384;29;20422;-76
2023/10/24 10:07:46;;;;;;;13.45;7.88;;;;;;;11.05;100.00;100164.44;4925552;28;20054;-76
2023/10/24 10:10:15;;;;;;;12.48;8.50;;;;;;;11.14;100.00;100147.69;4893049;29;20055;-76
2023/10/24 10:12:44;;;;;;;12.85;7.97;;;;;;;11.22;100.00;100159.88;4900409;29;20051;-77
2023/10/24 10:15:23;;;;;;;11.48;7.88;;;;;;;11.27;100.00;100155.44;4922920;28;20071;-77
2023/10/24 10:18:10;;;;;;;10.73;7.68;;;;;;;11.26;100.00;100148.41;4923095;29;20058;-77
2023/10/24 10:21:06;;;;;;;11.20;7.82;;;;;;;11.24;100.00;100160.72;4947349;29;20058;-76
2023/10/24 10:24:10;;;;;;;12.30;7.25;;;;;;;11.24;100.00;100160.72;4938461;28;20417;-77
2023/10/24 10:27:07;;;;;;;9.88;7.00;;;;;;;11.22;100.00;100149.31;4897569;28;20039;-78
2023/10/24 10:30:05;;;;;;;9.15;7.07;;;;;;;11.20;100.00;100156.38;4942720;28;20051;-77
2023/10/24 10:33:12;;;;;;;8.32;6.63;;;;;;;11.13;100.00;100154.69;4944158;29;20043;-77
2023/10/24 10:35:53;;;;;;;9.60;6.90;;;;;;;11.09;100.00;100156.47;4935862;28;20054;-77
2023/10/24 10:38:35;;;;;;;11.25;7.25;;;;;;;11.05;100.00;100149.50;4938309;28;20058;-76
2023/10/24 10:41:20;;;;;;;11.45;7.28;;;;;;;11.03;100.00;100146.00;4933012;29;20054;-76
2023/10/24 10:43:49;;;;;;;9.48;6.95;;;;;;;11.02;100.00;100149.56;4940605;29;20054;-77
2023/10/24 10:46:27;;;;;;;11.20;8.27;;;;;;;11.02;100.00;100144.28;4942510;28;20417;-77
2023/10/24 10:49:06;;;;;;;9.50;7.72;;;;;;;11.02;100.00;100148.66;4948339;29;20043;-77
2023/10/24 10:51:37;;;;;;;9.90;7.47;;;;;;;11.01;100.00;100153.06;4927028;29;20828;-77
2023/10/24 10:54:42;;;;;;;11.18;8.25;;;;;;;11.03;100.00;100147.78;4887696;29;20043;-76
2023/10/24 10:57:16;;;;;;;11.73;9.30;;;;;;;11.05;100.00;100146.00;4920706;29;20051;-77
2023/10/24 10:59:51;;;;;;;9.68;8.30;;;;;;;11.09;100.00;100145.94;4916898;29;20036;-77
2023/10/24 11:02:40;;;;;;;10.32;7.95;;;;;;;11.12;100.00;100142.41;4947286;29;20054;-77
2023/10/24 11:05:33;;;;;;;8.73;7.25;;;;;;;11.14;100.00;100142.41;4947389;29;20062;-76
2023/10/24 11:08:02;;;;;;;10.45;7.65;;;;;;;11.16;100.00;100140.63;4939120;28;20054;-78
2023/10/24 11:10:55;;;;;;;9.03;7.77;;;;;;;11.16;100.00;100143.25;4891798;29;20055;-78
2023/10/24 11:13:44;;;;;;;8.35;6.60;;;;;;;11.17;100.00;100145.00;4891367;29;20047;-77
2023/10/24 11:16:13;;;;;;;11.05;8.10;;;;;;;11.18;100.00;100144.13;4927858;29;20055;-77
2023/10/24 11:18:45;;;;;;;9.48;7.68;;;;;;;11.19;100.00;100130.91;4907634;29;20043;-78